sensor_id;sensor_type;location;lat;lon;timestamp;P1;durP1;ratioP1;P2;durP2;ratioP2
50219;SDS011;36110;51.536;7.562;2023-08-17T00:00:14;3.53;;;2.08;;
50219;SDS011;36110;51.536;7.562;2023-08-17T00:02:39;5.60;;;2.42;;
50219;SDS011;36110;51.536;7.562;2023-08-17T00:05:05;3.80;;;2.08;;
50219;SDS011;36110;51.536;7.562;2023-08-17T00:07:31;5.47;;;2.80;;
50219;SDS011;36110;51.536;7.562;2023-08-17T00:09:57;8.00;;;3.00;;
50219;SDS011;36110;51.536;7.562;2023-08-17T00:12:22;1.73;;;1.42;;
50219;SDS011;36110;51.536;7.562;2023-08-17T00:14:48;1.38;;;1.27;;
50219;SDS011;36110;51.536;7.562;2023-08-17T00:17:13;6.97;;;3.10;;
50219;SDS011;36110;51.536;7.562;2023-08-17T00:19:38;6.05;;;2.85;;
50219;SDS011;36110;51.536;7.562;2023-08-17T00:22:04;1.60;;;1.50;;
50219;SDS011;36110;51.536;7.562;2023-08-17T00:24:29;1.30;;;1.20;;
50219;SDS011;36110;51.536;7.562;2023-08-17T00:26:54;1.15;;;1.15;;
50219;SDS011;36110;51.536;7.562;2023-08-17T00:29:20;6.60;;;1.88;;
50219;SDS011;36110;51.536;7.562;2023-08-17T00:31:45;12.43;;;2.63;;
50219;SDS011;36110;51.536;7.562;2023-08-17T00:34:10;1.40;;;1.30;;
50219;SDS011;36110;51.536;7.562;2023-08-17T00:36:36;1.38;;;1.27;;
50219;SDS011;36110;51.536;7.562;2023-08-17T00:39:01;1.45;;;1.40;;
50219;SDS011;36110;51.536;7.562;2023-08-17T00:41:26;1.70;;;1.50;;
50219;SDS011;36110;51.536;7.562;2023-08-17T00:43:53;1.23;;;1.13;;
50219;SDS011;36110;51.536;7.562;2023-08-17T00:46:19;40.30;;;4.18;;
50219;SDS011;36110;51.536;7.562;2023-08-17T00:48:45;23.00;;;3.03;;
50219;SDS011;36110;51.536;7.562;2023-08-17T00:51:10;9.75;;;1.90;;
50219;SDS011;36110;51.536;7.562;2023-08-17T00:53:36;92.97;;;8.00;;
50219;SDS011;36110;51.536;7.562;2023-08-17T00:56:01;87.93;;;11.68;;
50219;SDS011;36110;51.536;7.562;2023-08-17T00:58:27;70.05;;;7.78;;
50219;SDS011;36110;51.536;7.562;2023-08-17T01:00:53;51.33;;;7.38;;
50219;SDS011;36110;51.536;7.562;2023-08-17T01:03:19;71.28;;;12.82;;
50219;SDS011;36110;51.536;7.562;2023-08-17T01:05:46;23.90;;;8.05;;
50219;SDS011;36110;51.536;7.562;2023-08-17T01:08:11;2.53;;;2.30;;
50219;SDS011;36110;51.536;7.562;2023-08-17T01:13:25;3.03;;;2.83;;
50219;SDS011;36110;51.536;7.562;2023-08-17T01:16:04;31.20;;;14.88;;
50219;SDS011;36110;51.536;7.562;2023-08-17T01:18:32;5.38;;;3.30;;
50219;SDS011;36110;51.536;7.562;2023-08-17T01:20:58;21.02;;;11.02;;
50219;SDS011;36110;51.536;7.562;2023-08-17T01:23:24;15.07;;;7.22;;
50219;SDS011;36110;51.536;7.562;2023-08-17T01:25:49;13.63;;;7.22;;
50219;SDS011;36110;51.536;7.562;2023-08-17T01:28:15;3.97;;;3.55;;
50219;SDS011;36110;51.536;7.562;2023-08-17T01:33:16;29.75;;;13.48;;
50219;SDS011;36110;51.536;7.562;2023-08-17T01:35:48;5.70;;;2.58;;
50219;SDS011;36110;51.536;7.562;2023-08-17T01:38:20;2.35;;;2.10;;
50219;SDS011;36110;51.536;7.562;2023-08-17T01:40:47;9.05;;;4.80;;
50219;SDS011;36110;51.536;7.562;2023-08-17T01:43:13;7.05;;;4.80;;
50219;SDS011;36110;51.536;7.562;2023-08-17T01:45:38;13.20;;;5.43;;
50219;SDS011;36110;51.536;7.562;2023-08-17T01:48:04;7.28;;;4.25;;
50219;SDS011;36110;51.536;7.562;2023-08-17T01:50:29;18.67;;;10.10;;
50219;SDS011;36110;51.536;7.562;2023-08-17T01:52:55;16.30;;;9.05;;
50219;SDS011;36110;51.536;7.562;2023-08-17T01:55:21;28.70;;;13.63;;
50219;SDS011;36110;51.536;7.562;2023-08-17T01:57:47;37.88;;;17.20;;
50219;SDS011;36110;51.536;7.562;2023-08-17T02:00:12;43.33;;;20.98;;
50219;SDS011;36110;51.536;7.562;2023-08-17T02:02:38;38.25;;;19.38;;
50219;SDS011;36110;51.536;7.562;2023-08-17T02:05:04;38.97;;;15.15;;
50219;SDS011;36110;51.536;7.562;2023-08-17T02:07:29;50.47;;;20.45;;
50219;SDS011;36110;51.536;7.562;2023-08-17T02:09:55;5.65;;;4.78;;
50219;SDS011;36110;51.536;7.562;2023-08-17T02:12:20;3.63;;;2.47;;
50219;SDS011;36110;51.536;7.562;2023-08-17T02:14:45;2.17;;;2.00;;
50219;SDS011;36110;51.536;7.562;2023-08-17T02:17:10;1.80;;;1.70;;
50219;SDS011;36110;51.536;7.562;2023-08-17T02:19:36;2.28;;;1.98;;
50219;SDS011;36110;51.536;7.562;2023-08-17T02:22:02;2.63;;;2.25;;
50219;SDS011;36110;51.536;7.562;2023-08-17T02:24:28;15.90;;;8.60;;
50219;SDS011;36110;51.536;7.562;2023-08-17T02:26:53;6.43;;;4.68;;
50219;SDS011;36110;51.536;7.562;2023-08-17T02:29:18;19.08;;;11.15;;
50219;SDS011;36110;51.536;7.562;2023-08-17T02:31:44;5.68;;;3.42;;
50219;SDS011;36110;51.536;7.562;2023-08-17T02:34:09;22.80;;;11.27;;
50219;SDS011;36110;51.536;7.562;2023-08-17T02:36:35;4.13;;;2.75;;
50219;SDS011;36110;51.536;7.562;2023-08-17T02:39:00;15.70;;;9.13;;
50219;SDS011;36110;51.536;7.562;2023-08-17T02:41:26;15.60;;;9.65;;
50219;SDS011;36110;51.536;7.562;2023-08-17T02:43:51;15.63;;;8.93;;
50219;SDS011;36110;51.536;7.562;2023-08-17T02:46:16;15.45;;;8.80;;
50219;SDS011;36110;51.536;7.562;2023-08-17T02:48:42;11.77;;;5.45;;
50219;SDS011;36110;51.536;7.562;2023-08-17T02:51:07;14.90;;;5.40;;
50219;SDS011;36110;51.536;7.562;2023-08-17T02:53:32;22.30;;;11.13;;
50219;SDS011;36110;51.536;7.562;2023-08-17T02:55:58;3.60;;;2.00;;
50219;SDS011;36110;51.536;7.562;2023-08-17T02:58:23;3.65;;;1.40;;
50219;SDS011;36110;51.536;7.562;2023-08-17T03:00:50;5.80;;;4.50;;
50219;SDS011;36110;51.536;7.562;2023-08-17T03:03:17;14.70;;;7.50;;
50219;SDS011;36110;51.536;7.562;2023-08-17T03:05:42;4.43;;;3.78;;
50219;SDS011;36110;51.536;7.562;2023-08-17T03:08:07;21.23;;;9.93;;
50219;SDS011;36110;51.536;7.562;2023-08-17T03:10:33;1.48;;;1.38;;
50219;SDS011;36110;51.536;7.562;2023-08-17T03:12:58;2.67;;;1.80;;
50219;SDS011;36110;51.536;7.562;2023-08-17T03:15:24;1.25;;;1.20;;
50219;SDS011;36110;51.536;7.562;2023-08-17T03:17:49;1.30;;;1.20;;
50219;SDS011;36110;51.536;7.562;2023-08-17T03:20:14;5.00;;;2.78;;
50219;SDS011;36110;51.536;7.562;2023-08-17T03:22:40;1.55;;;1.30;;
50219;SDS011;36110;51.536;7.562;2023-08-17T03:25:05;5.88;;;3.83;;
50219;SDS011;36110;51.536;7.562;2023-08-17T03:27:31;7.75;;;4.30;;
50219;SDS011;36110;51.536;7.562;2023-08-17T03:29:57;6.05;;;3.22;;
50219;SDS011;36110;51.536;7.562;2023-08-17T03:32:22;7.85;;;4.15;;
50219;SDS011;36110;51.536;7.562;2023-08-17T03:34:47;4.35;;;2.45;;
50219;SDS011;36110;51.536;7.562;2023-08-17T03:37:13;2.45;;;1.63;;
50219;SDS011;36110;51.536;7.562;2023-08-17T03:39:38;9.85;;;4.40;;
50219;SDS011;36110;51.536;7.562;2023-08-17T03:42:03;10.05;;;5.90;;
50219;SDS011;36110;51.536;7.562;2023-08-17T03:44:29;1.50;;;1.40;;
50219;SDS011;36110;51.536;7.562;2023-08-17T03:46:54;1.48;;;1.38;;
50219;SDS011;36110;51.536;7.562;2023-08-17T03:49:20;6.38;;;4.40;;
50219;SDS011;36110;51.536;7.562;2023-08-17T03:51:45;3.33;;;2.63;;
50219;SDS011;36110;51.536;7.562;2023-08-17T03:54:11;3.90;;;2.85;;
50219;SDS011;36110;51.536;7.562;2023-08-17T03:56:37;4.70;;;2.97;;
50219;SDS011;36110;51.536;7.562;2023-08-17T03:59:02;7.38;;;4.82;;
50219;SDS011;36110;51.536;7.562;2023-08-17T04:01:28;5.43;;;4.03;;
50219;SDS011;36110;51.536;7.562;2023-08-17T04:03:54;1.00;;;1.00;;
50219;SDS011;36110;51.536;7.562;2023-08-17T04:06:20;1.40;;;1.30;;
50219;SDS011;36110;51.536;7.562;2023-08-17T04:08:45;1.27;;;1.10;;
50219;SDS011;36110;51.536;7.562;2023-08-17T04:11:11;1.30;;;1.20;;
50219;SDS011;36110;51.536;7.562;2023-08-17T04:13:36;1.08;;;1.08;;
50219;SDS011;36110;51.536;7.562;2023-08-17T04:16:01;1.00;;;1.00;;
50219;SDS011;36110;51.536;7.562;2023-08-17T04:18:27;3.00;;;1.38;;
50219;SDS011;36110;51.536;7.562;2023-08-17T04:20:52;3.40;;;2.33;;
50219;SDS011;36110;51.536;7.562;2023-08-17T04:23:18;1.45;;;1.35;;
50219;SDS011;36110;51.536;7.562;2023-08-17T04:25:43;1.00;;;1.00;;
50219;SDS011;36110;51.536;7.562;2023-08-17T04:28:09;3.40;;;2.75;;
50219;SDS011;36110;51.536;7.562;2023-08-17T04:30:34;2.25;;;1.70;;
50219;SDS011;36110;51.536;7.562;2023-08-17T04:32:59;1.05;;;1.05;;
50219;SDS011;36110;51.536;7.562;2023-08-17T04:35:25;1.60;;;1.50;;
50219;SDS011;36110;51.536;7.562;2023-08-17T04:37:50;8.15;;;4.63;;
50219;SDS011;36110;51.536;7.562;2023-08-17T04:40:15;5.68;;;4.38;;
50219;SDS011;36110;51.536;7.562;2023-08-17T04:42:41;1.75;;;1.65;;
50219;SDS011;36110;51.536;7.562;2023-08-17T04:45:06;1.42;;;1.33;;
50219;SDS011;36110;51.536;7.562;2023-08-17T04:47:32;1.00;;;1.00;;
50219;SDS011;36110;51.536;7.562;2023-08-17T04:49:57;5.45;;;4.90;;
50219;SDS011;36110;51.536;7.562;2023-08-17T04:52:23;6.90;;;6.20;;
50219;SDS011;36110;51.536;7.562;2023-08-17T04:54:48;8.60;;;5.88;;
50219;SDS011;36110;51.536;7.562;2023-08-17T04:57:13;10.25;;;5.63;;
50219;SDS011;36110;51.536;7.562;2023-08-17T04:59:39;1.20;;;1.20;;
50219;SDS011;36110;51.536;7.562;2023-08-17T05:02:05;7.88;;;5.60;;
50219;SDS011;36110;51.536;7.562;2023-08-17T05:04:30;4.97;;;4.22;;
50219;SDS011;36110;51.536;7.562;2023-08-17T05:06:56;10.25;;;7.47;;
50219;SDS011;36110;51.536;7.562;2023-08-17T05:09:21;7.70;;;6.43;;
50219;SDS011;36110;51.536;7.562;2023-08-17T05:11:47;8.18;;;6.80;;
50219;SDS011;36110;51.536;7.562;2023-08-17T05:14:12;4.05;;;3.63;;
50219;SDS011;36110;51.536;7.562;2023-08-17T05:16:38;1.27;;;1.17;;
50219;SDS011;36110;51.536;7.562;2023-08-17T05:19:03;1.38;;;1.15;;
50219;SDS011;36110;51.536;7.562;2023-08-17T05:21:29;9.90;;;6.70;;
50219;SDS011;36110;51.536;7.562;2023-08-17T05:23:54;17.92;;;8.85;;
50219;SDS011;36110;51.536;7.562;2023-08-17T05:26:20;10.13;;;7.90;;
50219;SDS011;36110;51.536;7.562;2023-08-17T05:28:46;9.25;;;6.78;;
50219;SDS011;36110;51.536;7.562;2023-08-17T05:31:12;6.85;;;5.75;;
50219;SDS011;36110;51.536;7.562;2023-08-17T05:33:37;8.07;;;4.72;;
50219;SDS011;36110;51.536;7.562;2023-08-17T05:36:05;5.95;;;4.35;;
50219;SDS011;36110;51.536;7.562;2023-08-17T05:38:31;9.23;;;7.45;;
50219;SDS011;36110;51.536;7.562;2023-08-17T05:40:56;6.63;;;4.78;;
50219;SDS011;36110;51.536;7.562;2023-08-17T05:43:22;6.75;;;4.65;;
50219;SDS011;36110;51.536;7.562;2023-08-17T05:45:48;16.33;;;12.55;;
50219;SDS011;36110;51.536;7.562;2023-08-17T05:48:14;13.85;;;11.00;;
50219;SDS011;36110;51.536;7.562;2023-08-17T05:50:42;9.07;;;7.35;;
50219;SDS011;36110;51.536;7.562;2023-08-17T05:53:08;8.60;;;7.30;;
50219;SDS011;36110;51.536;7.562;2023-08-17T05:55:33;8.63;;;5.88;;
50219;SDS011;36110;51.536;7.562;2023-08-17T05:57:59;9.77;;;8.13;;
50219;SDS011;36110;51.536;7.562;2023-08-17T06:00:24;11.80;;;5.80;;
50219;SDS011;36110;51.536;7.562;2023-08-17T06:02:50;12.27;;;6.82;;
50219;SDS011;36110;51.536;7.562;2023-08-17T06:05:19;11.15;;;7.05;;
50219;SDS011;36110;51.536;7.562;2023-08-17T06:07:44;7.07;;;5.25;;
50219;SDS011;36110;51.536;7.562;2023-08-17T06:10:10;5.72;;;4.60;;
50219;SDS011;36110;51.536;7.562;2023-08-17T06:12:36;8.52;;;5.20;;
50219;SDS011;36110;51.536;7.562;2023-08-17T06:15:01;7.65;;;4.70;;
50219;SDS011;36110;51.536;7.562;2023-08-17T06:17:28;11.45;;;7.78;;
50219;SDS011;36110;51.536;7.562;2023-08-17T06:19:53;13.85;;;6.72;;
50219;SDS011;36110;51.536;7.562;2023-08-17T06:22:19;6.70;;;4.53;;
50219;SDS011;36110;51.536;7.562;2023-08-17T06:24:44;6.55;;;4.82;;
50219;SDS011;36110;51.536;7.562;2023-08-17T06:27:13;11.45;;;7.80;;
50219;SDS011;36110;51.536;7.562;2023-08-17T06:29:39;14.23;;;7.40;;
50219;SDS011;36110;51.536;7.562;2023-08-17T06:32:05;6.95;;;5.35;;
50219;SDS011;36110;51.536;7.562;2023-08-17T06:34:30;8.10;;;5.20;;
50219;SDS011;36110;51.536;7.562;2023-08-17T06:36:56;8.13;;;6.15;;
50219;SDS011;36110;51.536;7.562;2023-08-17T06:39:23;6.85;;;4.78;;
50219;SDS011;36110;51.536;7.562;2023-08-17T06:41:48;12.45;;;7.00;;
50219;SDS011;36110;51.536;7.562;2023-08-17T06:44:14;5.75;;;4.18;;
50219;SDS011;36110;51.536;7.562;2023-08-17T06:46:39;8.05;;;4.50;;
50219;SDS011;36110;51.536;7.562;2023-08-17T06:49:04;5.40;;;3.72;;
50219;SDS011;36110;51.536;7.562;2023-08-17T06:51:30;3.85;;;3.10;;
50219;SDS011;36110;51.536;7.562;2023-08-17T06:53:55;5.07;;;4.35;;
50219;SDS011;36110;51.536;7.562;2023-08-17T06:56:20;5.05;;;3.72;;
50219;SDS011;36110;51.536;7.562;2023-08-17T06:58:47;11.27;;;6.80;;
50219;SDS011;36110;51.536;7.562;2023-08-17T07:01:13;10.73;;;7.88;;
50219;SDS011;36110;51.536;7.562;2023-08-17T07:03:39;15.18;;;9.98;;
50219;SDS011;36110;51.536;7.562;2023-08-17T07:06:04;11.50;;;6.22;;
50219;SDS011;36110;51.536;7.562;2023-08-17T07:08:30;11.77;;;8.27;;
50219;SDS011;36110;51.536;7.562;2023-08-17T07:10:55;5.32;;;3.53;;
50219;SDS011;36110;51.536;7.562;2023-08-17T07:13:20;8.02;;;6.40;;
50219;SDS011;36110;51.536;7.562;2023-08-17T07:15:46;5.53;;;2.90;;
50219;SDS011;36110;51.536;7.562;2023-08-17T07:18:11;3.03;;;2.58;;
50219;SDS011;36110;51.536;7.562;2023-08-17T07:20:36;5.80;;;3.20;;
50219;SDS011;36110;51.536;7.562;2023-08-17T07:23:02;3.42;;;2.85;;
50219;SDS011;36110;51.536;7.562;2023-08-17T07:25:27;6.90;;;3.92;;
50219;SDS011;36110;51.536;7.562;2023-08-17T07:27:53;7.18;;;3.95;;
50219;SDS011;36110;51.536;7.562;2023-08-17T07:30:19;8.38;;;6.20;;
50219;SDS011;36110;51.536;7.562;2023-08-17T07:32:44;6.13;;;3.83;;
50219;SDS011;36110;51.536;7.562;2023-08-17T07:35:09;14.63;;;9.73;;
50219;SDS011;36110;51.536;7.562;2023-08-17T07:37:35;13.00;;;8.50;;
50219;SDS011;36110;51.536;7.562;2023-08-17T07:40:00;8.95;;;6.65;;
50219;SDS011;36110;51.536;7.562;2023-08-17T07:42:28;12.80;;;8.60;;
50219;SDS011;36110;51.536;7.562;2023-08-17T07:44:53;13.60;;;6.22;;
50219;SDS011;36110;51.536;7.562;2023-08-17T07:47:19;11.68;;;6.30;;
50219;SDS011;36110;51.536;7.562;2023-08-17T07:49:44;11.07;;;6.78;;
50219;SDS011;36110;51.536;7.562;2023-08-17T07:52:09;9.18;;;5.72;;
50219;SDS011;36110;51.536;7.562;2023-08-17T07:54:35;9.02;;;6.32;;
50219;SDS011;36110;51.536;7.562;2023-08-17T07:57:00;10.00;;;6.97;;
50219;SDS011;36110;51.536;7.562;2023-08-17T07:59:27;11.40;;;5.95;;
50219;SDS011;36110;51.536;7.562;2023-08-17T08:01:53;7.40;;;4.65;;
50219;SDS011;36110;51.536;7.562;2023-08-17T08:04:18;5.40;;;3.70;;
50219;SDS011;36110;51.536;7.562;2023-08-17T08:06:43;7.30;;;3.38;;
50219;SDS011;36110;51.536;7.562;2023-08-17T08:09:09;4.38;;;3.30;;
50219;SDS011;36110;51.536;7.562;2023-08-17T08:11:34;6.22;;;4.75;;
50219;SDS011;36110;51.536;7.562;2023-08-17T08:14:00;9.77;;;7.72;;
50219;SDS011;36110;51.536;7.562;2023-08-17T08:16:25;14.82;;;9.07;;
50219;SDS011;36110;51.536;7.562;2023-08-17T08:18:51;4.97;;;3.30;;
50219;SDS011;36110;51.536;7.562;2023-08-17T08:21:17;14.65;;;8.95;;
50219;SDS011;36110;51.536;7.562;2023-08-17T08:23:42;6.43;;;5.20;;
50219;SDS011;36110;51.536;7.562;2023-08-17T08:26:07;19.02;;;10.02;;
50219;SDS011;36110;51.536;7.562;2023-08-17T08:28:33;15.85;;;10.27;;
50219;SDS011;36110;51.536;7.562;2023-08-17T08:31:02;5.05;;;3.90;;
50219;SDS011;36110;51.536;7.562;2023-08-17T08:33:28;11.15;;;7.55;;
50219;SDS011;36110;51.536;7.562;2023-08-17T08:35:53;12.80;;;7.70;;
50219;SDS011;36110;51.536;7.562;2023-08-17T08:38:19;6.65;;;4.60;;
50219;SDS011;36110;51.536;7.562;2023-08-17T08:40:44;4.63;;;3.03;;
50219;SDS011;36110;51.536;7.562;2023-08-17T08:43:12;2.95;;;2.35;;
50219;SDS011;36110;51.536;7.562;2023-08-17T08:45:38;16.73;;;9.60;;
50219;SDS011;36110;51.536;7.562;2023-08-17T08:48:07;16.35;;;10.80;;
50219;SDS011;36110;51.536;7.562;2023-08-17T08:50:33;12.82;;;9.60;;
50219;SDS011;36110;51.536;7.562;2023-08-17T08:53:01;20.40;;;12.88;;
50219;SDS011;36110;51.536;7.562;2023-08-17T08:55:37;17.52;;;10.98;;
50219;SDS011;36110;51.536;7.562;2023-08-17T08:58:03;5.93;;;3.97;;
50219;SDS011;36110;51.536;7.562;2023-08-17T09:00:29;5.32;;;2.95;;
50219;SDS011;36110;51.536;7.562;2023-08-17T09:02:55;9.70;;;6.93;;
50219;SDS011;36110;51.536;7.562;2023-08-17T09:05:21;9.15;;;5.43;;
50219;SDS011;36110;51.536;7.562;2023-08-17T09:07:47;14.95;;;10.02;;
50219;SDS011;36110;51.536;7.562;2023-08-17T09:10:13;8.23;;;4.72;;
50219;SDS011;36110;51.536;7.562;2023-08-17T09:12:41;4.65;;;3.17;;
50219;SDS011;36110;51.536;7.562;2023-08-17T09:15:06;5.15;;;3.15;;
50219;SDS011;36110;51.536;7.562;2023-08-17T09:17:32;2.30;;;2.10;;
50219;SDS011;36110;51.536;7.562;2023-08-17T09:20:00;9.23;;;5.68;;
50219;SDS011;36110;51.536;7.562;2023-08-17T09:22:36;13.55;;;9.30;;
50219;SDS011;36110;51.536;7.562;2023-08-17T09:25:03;13.30;;;10.02;;
50219;SDS011;36110;51.536;7.562;2023-08-17T09:27:29;9.77;;;6.70;;
50219;SDS011;36110;51.536;7.562;2023-08-17T09:30:03;12.43;;;9.00;;
50219;SDS011;36110;51.536;7.562;2023-08-17T09:32:32;12.70;;;9.55;;
50219;SDS011;36110;51.536;7.562;2023-08-17T09:35:01;18.17;;;9.80;;
50219;SDS011;36110;51.536;7.562;2023-08-17T09:37:28;8.15;;;5.65;;
50219;SDS011;36110;51.536;7.562;2023-08-17T09:39:53;10.88;;;6.57;;
50219;SDS011;36110;51.536;7.562;2023-08-17T09:42:20;7.70;;;4.93;;
50219;SDS011;36110;51.536;7.562;2023-08-17T09:44:47;11.60;;;8.57;;
50219;SDS011;36110;51.536;7.562;2023-08-17T09:47:12;7.60;;;4.68;;
50219;SDS011;36110;51.536;7.562;2023-08-17T09:49:38;12.30;;;7.30;;
50219;SDS011;36110;51.536;7.562;2023-08-17T09:52:04;10.00;;;6.90;;
50219;SDS011;36110;51.536;7.562;2023-08-17T09:54:30;10.65;;;7.65;;
50219;SDS011;36110;51.536;7.562;2023-08-17T09:56:56;7.07;;;4.28;;
50219;SDS011;36110;51.536;7.562;2023-08-17T09:59:22;8.68;;;4.22;;
50219;SDS011;36110;51.536;7.562;2023-08-17T10:01:49;6.45;;;4.65;;
50219;SDS011;36110;51.536;7.562;2023-08-17T10:04:15;7.60;;;4.78;;
50219;SDS011;36110;51.536;7.562;2023-08-17T10:06:45;8.90;;;7.18;;
50219;SDS011;36110;51.536;7.562;2023-08-17T10:09:13;6.93;;;5.03;;
50219;SDS011;36110;51.536;7.562;2023-08-17T10:11:40;11.30;;;8.02;;
50219;SDS011;36110;51.536;7.562;2023-08-17T10:14:07;10.75;;;8.30;;
50219;SDS011;36110;51.536;7.562;2023-08-17T10:16:45;10.32;;;6.15;;
50219;SDS011;36110;51.536;7.562;2023-08-17T10:22:44;12.63;;;8.07;;
50219;SDS011;36110;51.536;7.562;2023-08-17T10:24:57;8.57;;;4.72;;
50219;SDS011;36110;51.536;7.562;2023-08-17T10:27:24;14.15;;;9.00;;
50219;SDS011;36110;51.536;7.562;2023-08-17T10:29:50;9.75;;;4.50;;
50219;SDS011;36110;51.536;7.562;2023-08-17T10:32:16;7.75;;;6.10;;
50219;SDS011;36110;51.536;7.562;2023-08-17T10:34:41;8.15;;;7.35;;
50219;SDS011;36110;51.536;7.562;2023-08-17T10:37:07;7.43;;;6.05;;
50219;SDS011;36110;51.536;7.562;2023-08-17T10:39:32;5.10;;;3.60;;
50219;SDS011;36110;51.536;7.562;2023-08-17T10:41:59;6.93;;;3.85;;
50219;SDS011;36110;51.536;7.562;2023-08-17T10:44:45;9.90;;;6.63;;
50219;SDS011;36110;51.536;7.562;2023-08-17T10:49:48;18.95;;;12.73;;
50219;SDS011;36110;51.536;7.562;2023-08-17T10:52:24;5.53;;;3.90;;
50219;SDS011;36110;51.536;7.562;2023-08-17T10:54:51;16.55;;;11.68;;
50219;SDS011;36110;51.536;7.562;2023-08-17T11:02:40;13.63;;;9.07;;
50219;SDS011;36110;51.536;7.562;2023-08-17T11:05:07;16.17;;;12.45;;
50219;SDS011;36110;51.536;7.562;2023-08-17T11:07:43;7.47;;;4.18;;
50219;SDS011;36110;51.536;7.562;2023-08-17T11:10:26;4.82;;;3.80;;
50219;SDS011;36110;51.536;7.562;2023-08-17T11:15:24;14.15;;;12.05;;
50219;SDS011;36110;51.536;7.562;2023-08-17T11:17:50;14.68;;;12.00;;
50219;SDS011;36110;51.536;7.562;2023-08-17T11:20:16;9.68;;;6.53;;
50219;SDS011;36110;51.536;7.562;2023-08-17T11:22:41;9.20;;;7.43;;
50219;SDS011;36110;51.536;7.562;2023-08-17T11:25:06;15.30;;;11.50;;
50219;SDS011;36110;51.536;7.562;2023-08-17T11:27:32;5.07;;;4.13;;
50219;SDS011;36110;51.536;7.562;2023-08-17T11:29:58;6.85;;;4.47;;
50219;SDS011;36110;51.536;7.562;2023-08-17T11:32:23;6.32;;;4.72;;
50219;SDS011;36110;51.536;7.562;2023-08-17T11:34:49;15.63;;;10.65;;
50219;SDS011;36110;51.536;7.562;2023-08-17T11:37:15;12.75;;;9.30;;
50219;SDS011;36110;51.536;7.562;2023-08-17T11:39:41;9.07;;;5.70;;
50219;SDS011;36110;51.536;7.562;2023-08-17T11:42:06;3.33;;;3.03;;
50219;SDS011;36110;51.536;7.562;2023-08-17T11:44:32;7.72;;;5.80;;
50219;SDS011;36110;51.536;7.562;2023-08-17T11:46:58;4.10;;;3.10;;
50219;SDS011;36110;51.536;7.562;2023-08-17T11:49:23;12.82;;;10.98;;
50219;SDS011;36110;51.536;7.562;2023-08-17T11:51:49;14.77;;;11.48;;
50219;SDS011;36110;51.536;7.562;2023-08-17T11:54:16;13.05;;;10.45;;
50219;SDS011;36110;51.536;7.562;2023-08-17T11:56:41;4.38;;;3.97;;
50219;SDS011;36110;51.536;7.562;2023-08-17T11:59:10;5.03;;;4.10;;
50219;SDS011;36110;51.536;7.562;2023-08-17T12:01:39;13.10;;;9.20;;
50219;SDS011;36110;51.536;7.562;2023-08-17T12:04:05;16.27;;;13.93;;
50219;SDS011;36110;51.536;7.562;2023-08-17T12:06:31;5.35;;;4.85;;
50219;SDS011;36110;51.536;7.562;2023-08-17T12:08:56;15.90;;;12.40;;
50219;SDS011;36110;51.536;7.562;2023-08-17T12:11:25;3.28;;;2.88;;
50219;SDS011;36110;51.536;7.562;2023-08-17T12:13:51;18.08;;;13.32;;
50219;SDS011;36110;51.536;7.562;2023-08-17T12:16:17;5.43;;;4.00;;
50219;SDS011;36110;51.536;7.562;2023-08-17T12:18:44;21.10;;;17.67;;
50219;SDS011;36110;51.536;7.562;2023-08-17T12:21:11;20.40;;;16.52;;
50219;SDS011;36110;51.536;7.562;2023-08-17T12:23:36;22.50;;;16.10;;
50219;SDS011;36110;51.536;7.562;2023-08-17T12:26:01;12.43;;;8.73;;
50219;SDS011;36110;51.536;7.562;2023-08-17T12:28:27;17.15;;;15.35;;
50219;SDS011;36110;51.536;7.562;2023-08-17T12:31:02;15.52;;;12.38;;
50219;SDS011;36110;51.536;7.562;2023-08-17T12:33:28;16.15;;;12.45;;
50219;SDS011;36110;51.536;7.562;2023-08-17T12:35:54;6.13;;;4.75;;
50219;SDS011;36110;51.536;7.562;2023-08-17T12:38:19;17.30;;;12.18;;
50219;SDS011;36110;51.536;7.562;2023-08-17T12:40:45;13.98;;;8.75;;
50219;SDS011;36110;51.536;7.562;2023-08-17T12:43:10;21.30;;;16.20;;
50219;SDS011;36110;51.536;7.562;2023-08-17T12:45:35;19.35;;;14.90;;
50219;SDS011;36110;51.536;7.562;2023-08-17T12:48:01;21.00;;;15.65;;
50219;SDS011;36110;51.536;7.562;2023-08-17T12:50:26;13.25;;;10.07;;
50219;SDS011;36110;51.536;7.562;2023-08-17T12:52:51;19.27;;;15.50;;
50219;SDS011;36110;51.536;7.562;2023-08-17T12:55:17;3.97;;;3.47;;
50219;SDS011;36110;51.536;7.562;2023-08-17T12:57:42;14.55;;;10.88;;
50219;SDS011;36110;51.536;7.562;2023-08-17T13:00:07;16.10;;;11.88;;
50219;SDS011;36110;51.536;7.562;2023-08-17T13:02:33;4.70;;;3.85;;
50219;SDS011;36110;51.536;7.562;2023-08-17T13:04:59;15.25;;;12.32;;
50219;SDS011;36110;51.536;7.562;2023-08-17T13:07:24;21.52;;;14.43;;
50219;SDS011;36110;51.536;7.562;2023-08-17T13:09:49;13.93;;;9.02;;
50219;SDS011;36110;51.536;7.562;2023-08-17T13:12:15;6.28;;;4.97;;
50219;SDS011;36110;51.536;7.562;2023-08-17T13:14:40;4.25;;;3.85;;
50219;SDS011;36110;51.536;7.562;2023-08-17T13:17:05;15.98;;;12.65;;
50219;SDS011;36110;51.536;7.562;2023-08-17T13:19:31;8.07;;;6.63;;
50219;SDS011;36110;51.536;7.562;2023-08-17T13:21:56;12.30;;;10.02;;
50219;SDS011;36110;51.536;7.562;2023-08-17T13:24:22;21.80;;;14.73;;
50219;SDS011;36110;51.536;7.562;2023-08-17T13:26:47;3.72;;;3.05;;
50219;SDS011;36110;51.536;7.562;2023-08-17T13:29:16;18.77;;;14.18;;
50219;SDS011;36110;51.536;7.562;2023-08-17T13:31:41;4.95;;;3.92;;
50219;SDS011;36110;51.536;7.562;2023-08-17T13:34:07;3.50;;;3.17;;
50219;SDS011;36110;51.536;7.562;2023-08-17T13:36:32;4.70;;;3.95;;
50219;SDS011;36110;51.536;7.562;2023-08-17T13:38:57;15.13;;;12.35;;
50219;SDS011;36110;51.536;7.562;2023-08-17T13:41:23;3.85;;;3.55;;
50219;SDS011;36110;51.536;7.562;2023-08-17T13:43:50;3.72;;;3.13;;
50219;SDS011;36110;51.536;7.562;2023-08-17T13:46:15;2.80;;;2.60;;
50219;SDS011;36110;51.536;7.562;2023-08-17T13:48:40;13.52;;;12.13;;
50219;SDS011;36110;51.536;7.562;2023-08-17T13:51:06;10.13;;;8.30;;
50219;SDS011;36110;51.536;7.562;2023-08-17T13:53:31;8.50;;;6.00;;
50219;SDS011;36110;51.536;7.562;2023-08-17T13:55:57;13.73;;;11.18;;
50219;SDS011;36110;51.536;7.562;2023-08-17T13:58:22;13.60;;;11.15;;
50219;SDS011;36110;51.536;7.562;2023-08-17T14:00:47;3.47;;;2.92;;
50219;SDS011;36110;51.536;7.562;2023-08-17T14:03:13;8.95;;;7.95;;
50219;SDS011;36110;51.536;7.562;2023-08-17T14:05:39;14.15;;;11.55;;
50219;SDS011;36110;51.536;7.562;2023-08-17T14:08:04;13.00;;;10.18;;
50219;SDS011;36110;51.536;7.562;2023-08-17T14:10:31;4.18;;;2.70;;
50219;SDS011;36110;51.536;7.562;2023-08-17T14:12:58;12.63;;;11.35;;
50219;SDS011;36110;51.536;7.562;2023-08-17T14:15:23;14.45;;;10.93;;
50219;SDS011;36110;51.536;7.562;2023-08-17T14:17:49;4.78;;;3.45;;
50219;SDS011;36110;51.536;7.562;2023-08-17T14:20:14;11.30;;;9.65;;
50219;SDS011;36110;51.536;7.562;2023-08-17T14:22:39;3.00;;;2.60;;
50219;SDS011;36110;51.536;7.562;2023-08-17T14:25:05;13.43;;;9.70;;
50219;SDS011;36110;51.536;7.562;2023-08-17T14:27:31;4.32;;;3.80;;
50219;SDS011;36110;51.536;7.562;2023-08-17T14:29:56;12.88;;;8.73;;
50219;SDS011;36110;51.536;7.562;2023-08-17T14:32:21;4.03;;;3.50;;
50219;SDS011;36110;51.536;7.562;2023-08-17T14:34:47;3.75;;;3.05;;
50219;SDS011;36110;51.536;7.562;2023-08-17T14:37:12;8.00;;;7.20;;
50219;SDS011;36110;51.536;7.562;2023-08-17T14:39:38;8.20;;;6.07;;
50219;SDS011;36110;51.536;7.562;2023-08-17T14:42:03;12.93;;;9.30;;
50219;SDS011;36110;51.536;7.562;2023-08-17T14:44:28;13.43;;;11.82;;
50219;SDS011;36110;51.536;7.562;2023-08-17T14:46:54;10.90;;;8.13;;
50219;SDS011;36110;51.536;7.562;2023-08-17T14:49:19;8.45;;;7.20;;
50219;SDS011;36110;51.536;7.562;2023-08-17T14:51:44;13.73;;;10.70;;